Time;durP1;ratioP1;P1;durP2;ratioP2;P2;SDS_P1;SDS_P2;PMS_P1;PMS_P2;Temp;Humidity;BMP_temperature;BMP_pressure;BME280_temperature;BME280_humidity;BME280_pressure;Samples;Min_cycle;Max_cycle;Signal;HPM_P1;HPM_P2
2022/12/10 00:01:40;;;;;;;33.72;14.65;;;;;;;-1.33;68.94;99756.81;5033312;28;20040;-61
2022/12/10 00:04:05;;;;;;;38.10;15.05;;;;;;;-1.25;68.63;99755.69;5032824;28;20041;-61
2022/12/10 00:06:34;;;;;;;32.05;13.25;;;;;;;-1.25;68.57;99758.31;5032892;28;20040;-60
2022/12/10 00:09:00;;;;;;;32.17;12.73;;;;;;;-1.24;68.48;99760.91;5033971;28;20087;-60
2022/12/10 00:11:27;;;;;;;29.33;12.40;;;;;;;-1.20;68.90;99754.63;5033305;28;20072;-60
2022/12/10 00:13:53;;;;;;;23.88;11.05;;;;;;;-1.15;68.71;99744.00;5031524;28;20391;-61
2022/12/10 00:16:21;;;;;;;22.63;11.02;;;;;;;-1.12;68.77;99754.38;5033283;28;20079;-61
2022/12/10 00:18:48;;;;;;;25.77;11.18;;;;;;;-1.15;68.25;99751.88;5032879;28;20045;-61
2022/12/10 00:21:17;;;;;;;18.98;9.52;;;;;;;-1.07;68.45;99752.47;5033220;28;20040;-62
2022/12/10 00:23:43;;;;;;;19.05;9.68;;;;;;;-1.15;68.20;99730.84;5033598;28;20037;-60
2022/12/10 00:26:21;;;;;;;22.02;10.15;;;;;;;-1.00;68.04;99742.59;5033228;28;20364;-61
2022/12/10 00:28:47;;;;;;;19.88;9.60;;;;;;;-0.99;67.53;99732.94;5032125;28;20071;-61
2022/12/10 00:31:16;;;;;;;20.27;9.10;;;;;;;-1.02;67.26;99737.38;5033062;28;20153;-61
2022/12/10 00:33:42;;;;;;;20.77;9.55;;;;;;;-1.13;67.90;99746.53;5033163;28;20044;-59
2022/12/10 00:36:14;;;;;;;22.40;9.57;;;;;;;-1.13;68.32;99750.03;5032473;28;20431;-61
2022/12/10 00:38:41;;;;;;;20.63;9.10;;;;;;;-1.09;67.43;99737.63;5032375;28;20056;-60
2022/12/10 00:41:06;;;;;;;18.73;8.93;;;;;;;-1.34;67.40;99705.19;5033049;28;20045;-57
2022/12/10 00:43:32;;;;;;;17.67;8.82;;;;;;;-1.17;68.52;99740.56;5032978;28;20030;-60
2022/12/10 00:45:58;;;;;;;21.08;9.07;;;;;;;-1.15;68.43;99733.47;5032231;28;20033;-58
2022/12/10 00:48:24;;;;;;;21.80;10.43;;;;;;;-1.14;68.16;99727.31;5031799;28;20136;-61
2022/12/10 00:51:02;;;;;;;19.40;9.18;;;;;;;-1.06;68.28;99727.06;5032751;28;20026;-61
2022/12/10 00:53:30;;;;;;;19.50;8.80;;;;;;;-1.08;67.88;99724.47;5032921;28;20043;-61
2022/12/10 00:55:57;;;;;;;19.27;8.32;;;;;;;-1.07;68.45;99730.59;5032012;28;20029;-59
2022/12/10 00:58:25;;;;;;;21.55;9.57;;;;;;;-1.08;68.52;99721.00;5032332;28;20090;-60
2022/12/10 01:00:51;;;;;;;18.65;9.25;;;;;;;-0.97;68.12;99736.38;5031326;28;20052;-60
2022/12/10 01:03:16;;;;;;;18.45;9.50;;;;;;;-0.96;68.32;99727.59;5032736;28;20029;-56
2022/12/10 01:05:42;;;;;;;20.23;8.93;;;;;;;-0.94;68.76;99700.34;5031991;28;20041;-60
2022/12/10 01:08:07;;;;;;;23.10;9.80;;;;;;;-0.90;67.71;99693.22;5031648;28;20037;-56
2022/12/10 01:10:33;;;;;;;20.15;8.80;;;;;;;-0.99;68.23;99694.38;5031527;28;20120;-58
2022/12/10 01:12:58;;;;;;;22.85;10.82;;;;;;;-0.97;68.36;99699.56;5032607;28;20406;-60
2022/12/10 01:15:24;;;;;;;23.13;10.77;;;;;;;-0.96;68.00;99701.31;5032084;28;20108;-58
2022/12/10 01:17:49;;;;;;;23.88;10.23;;;;;;;-0.96;68.53;99691.66;5031796;28;20037;-57
2022/12/10 01:20:15;;;;;;;21.83;10.55;;;;;;;-0.97;68.98;99674.16;5032721;28;20037;-58
2022/12/10 01:22:40;;;;;;;24.48;10.55;;;;;;;-0.88;68.85;99680.88;5032193;28;20021;-60
2022/12/10 01:25:06;;;;;;;27.42;11.45;;;;;;;-0.82;68.27;99678.00;5032072;28;20042;-58
2022/12/10 01:27:31;;;;;;;29.17;11.40;;;;;;;-0.86;68.65;99671.16;5031615;28;20033;-59
2022/12/10 01:29:56;;;;;;;25.15;11.18;;;;;;;-0.89;68.96;99676.53;5032298;28;20033;-59
2022/12/10 01:32:22;;;;;;;28.40;11.55;;;;;;;-0.80;68.64;99686.69;5032110;28;20353;-61
2022/12/10 01:34:47;;;;;;;28.05;12.02;;;;;;;-0.76;68.64;99690.94;5032022;28;20033;-57
2022/12/10 01:37:13;;;;;;;27.52;12.13;;;;;;;-0.70;68.69;99692.47;5031472;28;20036;-60
2022/12/10 01:39:39;;;;;;;29.90;12.52;;;;;;;-0.64;68.88;99680.91;5031586;28;20029;-59
2022/12/10 01:42:05;;;;;;;28.55;12.45;;;;;;;-0.59;68.03;99674.56;5031684;28;20033;-60
2022/12/10 01:44:30;;;;;;;33.72;12.88;;;;;;;-0.52;67.90;99671.69;5031890;28;20144;-60
2022/12/10 01:46:58;;;;;;;30.55;13.55;;;;;;;-0.53;67.98;99680.50;5031188;28;20054;-60
2022/12/10 01:49:31;;;;;;;31.15;12.73;;;;;;;-0.55;68.58;99684.97;5031748;28;20037;-59
2022/12/10 01:51:57;;;;;;;33.30;13.15;;;;;;;-0.62;68.25;99669.38;5031631;28;20041;-60
2022/12/10 01:54:38;;;;;;;32.05;13.10;;;;;;;-0.49;68.27;99685.56;5031488;28;20108;-58
2022/12/10 01:57:07;;;;;;;29.65;12.85;;;;;;;-0.41;68.09;99693.19;5032030;28;20060;-59
2022/12/10 01:59:34;;;;;;;24.98;11.98;;;;;;;-0.36;67.91;99693.00;5031460;28;20095;-57
2022/12/10 02:02:12;;;;;;;27.80;11.70;;;;;;;-0.36;67.59;99693.00;5031718;28;20048;-56
2022/12/10 02:05:02;;;;;;;29.25;12.80;;;;;;;-0.27;67.57;99692.66;5031998;28;20037;-57
2022/12/10 02:07:37;;;;;;;29.60;13.77;;;;;;;-0.35;67.07;99686.84;5031324;28;20471;-58
2022/12/10 02:10:12;;;;;;;29.67;12.95;;;;;;;-0.38;68.03;99692.22;5031617;28;20038;-54
2022/12/10 02:12:44;;;;;;;31.98;13.18;;;;;;;-0.38;67.55;99686.97;5032836;28;20029;-58
2022/12/10 02:15:20;;;;;;;30.30;13.32;;;;;;;-0.52;67.46;99658.53;5035125;28;20044;-59
2022/12/10 02:17:52;;;;;;;34.78;14.45;;;;;;;-0.37;67.76;99700.03;5035212;28;20431;-56
2022/12/10 02:20:17;;;;;;;36.42;14.70;;;;;;;-0.38;67.37;99700.94;5036164;28;20041;-59
2022/12/10 02:22:50;;;;;;;32.13;14.55;;;;;;;-0.35;68.28;99700.88;5034830;28;20087;-61
2022/12/10 02:25:20;;;;;;;37.53;15.13;;;;;;;-0.33;67.62;99692.91;5035369;28;20091;-61
2022/12/10 02:27:57;;;;;;;38.17;15.57;;;;;;;-0.31;66.90;99684.03;5035468;28;20033;-62
2022/12/10 02:30:22;;;;;;;35.03;15.30;;;;;;;-0.31;67.46;99685.81;5035467;28;20030;-56
2022/12/10 02:32:50;;;;;;;38.40;16.70;;;;;;;-0.34;67.28;99678.03;5035119;28;20036;-56
2022/12/10 02:35:21;;;;;;;38.83;15.98;;;;;;;-0.34;67.76;99691.19;5035021;28;20037;-56
2022/12/10 02:37:51;;;;;;;40.13;16.40;;;;;;;-0.32;67.12;99678.81;5035196;28;20057;-56
2022/12/10 02:40:20;;;;;;;39.45;16.52;;;;;;;-0.34;67.71;99678.91;5034863;28;20063;-55
2022/12/10 02:42:49;;;;;;;44.97;18.20;;;;;;;-0.30;67.69;99679.63;5034559;28;20026;-54
2022/12/10 02:45:15;;;;;;;44.53;17.88;;;;;;;-0.30;67.38;99669.09;5034768;28;20040;-56
2022/12/10 02:47:41;;;;;;;43.50;18.02;;;;;;;-0.30;67.35;99669.97;5035035;28;20134;-58
2022/12/10 02:50:10;;;;;;;47.08;18.58;;;;;;;-0.29;67.31;99678.69;5033918;28;20041;-51
2022/12/10 02:52:35;;;;;;;44.70;19.05;;;;;;;-0.45;67.74;99650.38;5034135;28;20119;-51
2022/12/10 02:55:01;;;;;;;48.15;19.52;;;;;;;-0.30;67.73;99658.56;5034765;28;20065;-50
2022/12/10 02:57:28;;;;;;;44.60;19.77;;;;;;;-0.27;67.08;99662.88;5034892;28;20033;-54
2022/12/10 03:00:18;;;;;;;45.20;20.27;;;;;;;-0.22;67.28;99664.41;5034490;28;20032;-55
2022/12/10 03:02:46;;;;;;;51.63;20.42;;;;;;;-0.26;67.49;99648.78;5034058;28;20037;-56
2022/12/10 03:05:19;;;;;;;50.28;19.27;;;;;;;-0.24;67.82;99657.50;5034167;28;20044;-54
2022/12/10 03:07:47;;;;;;;46.33;18.73;;;;;;;-0.21;67.07;99652.09;5034264;28;20034;-57
2022/12/10 03:10:30;;;;;;;46.58;20.05;;;;;;;-0.16;67.34;99648.38;5032773;28;20067;-53
2022/12/10 03:13:02;;;;;;;47.90;19.67;;;;;;;-0.18;67.49;99651.97;5033748;28;20057;-54
2022/12/10 03:15:33;;;;;;;51.28;20.08;;;;;;;-0.16;66.79;99661.53;5023515;28;20026;-54
2022/12/10 03:18:02;;;;;;;53.53;21.52;;;;;;;-0.36;66.96;99622.84;5034139;28;20379;-55
2022/12/10 03:20:31;;;;;;;54.42;21.67;;;;;;;-0.44;67.27;99614.38;5023136;28;20116;-55
2022/12/10 03:22:57;;;;;;;45.90;20.35;;;;;;;-0.18;66.87;99663.38;5013810;28;20530;-55
2022/12/10 03:25:29;;;;;;;50.53;21.50;;;;;;;-0.18;66.80;99647.59;5029524;28;20562;-55
2022/12/10 03:27:58;;;;;;;57.17;22.95;;;;;;;-0.15;66.81;99658.00;5034392;28;20040;-54
2022/12/10 03:30:24;;;;;;;53.05;22.48;;;;;;;-0.19;67.04;99651.13;5034132;28;20045;-55
2022/12/10 03:32:51;;;;;;;68.65;22.50;;;;;;;-0.17;66.85;99665.09;5033508;28;20021;-53
2022/12/10 03:35:20;;;;;;;58.20;22.60;;;;;;;-0.20;66.70;99653.81;5033478;28;20068;-55
2022/12/10 03:37:46;;;;;;;60.13;23.17;;;;;;;-0.35;66.84;99644.75;5033600;28;20106;-50
2022/12/10 03:40:12;;;;;;;55.38;21.85;;;;;;;-0.38;67.17;99656.22;5033732;28;20110;-51
2022/12/10 03:42:39;;;;;;;57.13;22.08;;;;;;;-0.41;67.67;99651.09;5033098;28;20458;-53
2022/12/10 03:45:05;;;;;;;52.78;20.90;;;;;;;-0.33;67.74;99669.22;5034038;28;20142;-54
2022/12/10 03:47:31;;;;;;;54.80;21.98;;;;;;;-0.44;67.01;99645.94;5032911;28;20049;-51
2022/12/10 03:49:56;;;;;;;50.47;20.30;;;;;;;-0.27;66.89;99679.50;5032659;28;20064;-52
2022/12/10 03:52:21;;;;;;;52.90;20.63;;;;;;;-0.24;66.80;99674.16;5033520;28;20076;-53
2022/12/10 03:54:47;;;;;;;45.55;20.10;;;;;;;-0.34;67.09;99651.72;5033353;28;20045;-65
2022/12/10 03:57:13;;;;;;;48.38;20.83;;;;;;;-0.21;66.82;99657.38;5022740;28;20029;-56
2022/12/10 03:59:38;;;;;;;53.05;21.25;;;;;;;-0.38;66.77;99635.19;5023812;28;20033;-63
2022/12/10 04:02:03;;;;;;;55.28;22.23;;;;;;;-0.23;66.61;99651.31;5023742;28;20059;-68
2022/12/10 04:04:30;;;;;;;55.95;22.02;;;;;;;-0.22;67.13;99661.78;5023037;28;20048;-61
2022/12/10 04:06:55;;;;;;;58.08;22.50;;;;;;;-0.20;66.83;99653.81;5017098;28;20440;-61
2022/12/10 04:09:21;;;;;;;56.45;22.35;;;;;;;-0.17;66.71;99654.56;5013167;28;20029;-62
2022/12/10 04:11:46;;;;;;;56.30;22.35;;;;;;;-0.26;66.83;99647.00;5012985;28;20038;-63
2022/12/10 04:17:04;;;;;;;55.20;21.55;;;;;;;-0.17;66.37;99659.81;5017023;28;20045;-61
2022/12/10 04:19:29;;;;;;;58.28;23.10;;;;;;;-0.14;66.03;99666.72;5031121;28;20022;-64
2022/12/10 04:27:27;;;;;;;69.32;24.13;;;;;;;-0.38;66.88;99673.81;5029592;28;20080;-60
2022/12/10 04:29:54;;;;;;;64.50;23.30;;;;;;;-0.42;67.70;99669.59;5032567;28;20543;-60
2022/12/10 04:32:20;;;;;;;69.40;24.98;;;;;;;-0.37;67.43;99665.00;5032981;28;20033;-63
2022/12/10 04:34:45;;;;;;;60.67;22.63;;;;;;;-0.50;68.03;99631.25;5021490;28;20036;-63
2022/12/10 04:37:12;;;;;;;58.80;23.55;;;;;;;-0.28;66.86;99661.16;5023004;28;20029;-59
2022/12/10 04:39:38;;;;;;;60.55;22.83;;;;;;;-0.19;67.20;99650.25;5021056;28;20137;-58
2022/12/10 04:42:04;;;;;;;58.33;22.77;;;;;;;-0.04;66.44;99664.59;5032520;28;20109;-59
2022/12/10 04:44:29;;;;;;;60.60;22.80;;;;;;;-0.08;66.39;99663.00;5032651;28;20034;-58
2022/12/10 04:46:55;;;;;;;56.22;22.98;;;;;;;-0.06;66.73;99669.06;5030885;28;20025;-60
2022/12/10 04:49:20;;;;;;;58.22;22.73;;;;;;;-0.07;66.81;99651.56;5031501;28;20049;-61
2022/12/10 04:51:46;;;;;;;55.60;23.38;;;;;;;-0.24;66.83;99621.53;5032087;28;20037;-59
2022/12/10 04:54:13;;;;;;;59.90;22.65;;;;;;;0.01;66.20;99667.06;5023608;28;20025;-59
2022/12/10 04:56:38;;;;;;;62.50;24.33;;;;;;;-0.02;66.52;99666.25;5031476;28;20085;-59
2022/12/10 04:59:04;;;;;;;55.78;22.33;;;;;;;-0.02;66.47;99663.63;5032133;28;20033;-59
2022/12/10 05:01:30;;;;;;;52.35;22.52;;;;;;;-0.05;66.48;99641.81;5032984;28;20056;-59
2022/12/10 05:04:01;;;;;;;58.03;23.17;;;;;;;-0.01;66.84;99656.56;5032477;28;20029;-62
2022/12/10 05:06:27;;;;;;;53.50;21.58;;;;;;;-0.04;67.02;99657.56;5012250;28;20034;-63
2022/12/10 05:08:53;;;;;;;53.90;23.08;;;;;;;0.06;66.61;99652.81;5012192;28;20056;-62
2022/12/10 05:11:21;;;;;;;55.25;22.10;;;;;;;0.07;65.99;99646.63;5021210;28;20025;-66
2022/12/10 05:13:46;;;;;;;49.13;21.35;;;;;;;0.08;66.22;99650.97;5032612;28;20034;-62
2022/12/10 05:16:15;;;;;;;47.47;20.92;;;;;;;0.03;66.41;99638.91;5030832;28;20072;-70
2022/12/10 05:18:40;;;;;;;47.15;20.73;;;;;;;-0.03;66.28;99651.38;5027726;28;20564;-70
2022/12/10 05:21:12;;;;;;;47.97;21.30;;;;;;;-0.07;66.72;99647.16;5031599;28;20033;-65
2022/12/10 05:23:39;;;;;;;45.55;22.02;;;;;;;-0.18;66.60;99621.28;5031508;28;20053;-71
2022/12/10 05:26:10;;;;;;;48.80;20.40;;;;;;;0.07;66.36;99653.63;5030776;28;20120;-67
2022/12/10 05:28:41;;;;;;;51.05;21.25;;;;;;;-0.01;66.70;99654.81;5014212;28;20030;-69
2022/12/10 05:31:15;;;;;;;54.53;22.73;;;;;;;0.07;66.48;99664.16;5031408;28;20464;-70
2022/12/10 05:33:41;;;;;;;48.25;21.95;;;;;;;-0.05;66.92;99642.69;5029105;28;20032;-68
2022/12/10 05:36:08;;;;;;;57.88;23.02;;;;;;;-0.01;66.54;99656.56;5031410;28;20447;-69
2022/12/10 05:38:34;;;;;;;60.40;23.42;;;;;;;-0.01;66.72;99653.94;5031378;28;20037;-68
2022/12/10 05:41:10;;;;;;;50.63;22.85;;;;;;;0.06;66.95;99660.69;5014480;28;20036;-68
2022/12/10 05:43:36;;;;;;;56.15;24.45;;;;;;;0.02;66.84;99666.13;5013710;28;20026;-68
2022/12/10 05:46:05;;;;;;;56.90;23.85;;;;;;;-0.13;66.12;99646.53;5030759;28;20025;-68
2022/12/10 05:48:32;;;;;;;56.50;24.75;;;;;;;-0.08;67.07;99657.75;5033750;28;20380;-68
2022/12/10 05:50:58;;;;;;;53.13;24.52;;;;;;;-0.02;66.30;99668.88;5034282;28;20037;-67
2022/12/10 05:53:24;;;;;;;58.95;24.38;;;;;;;-0.13;66.85;99655.28;5034463;28;20083;-68
2022/12/10 05:55:49;;;;;;;54.78;24.48;;;;;;;-0.06;66.64;99650.63;5035735;28;20090;-69
2022/12/10 05:58:15;;;;;;;54.72;24.52;;;;;;;-0.07;66.79;99654.19;5017402;28;20124;-68
2022/12/10 06:00:42;;;;;;;57.92;24.65;;;;;;;-0.11;67.05;99657.88;5035662;28;20112;-67
2022/12/10 06:03:07;;;;;;;53.38;23.90;;;;;;;-0.10;67.68;99659.56;5033427;28;20026;-67
2022/12/10 06:05:40;;;;;;;52.97;23.60;;;;;;;-0.04;67.18;99654.94;5034592;28;20330;-67
2022/12/10 06:08:05;;;;;;;53.45;24.63;;;;;;;-0.07;67.29;99646.28;5066914;28;20072;-68
2022/12/10 06:10:31;;;;;;;56.90;24.85;;;;;;;-0.18;67.26;99607.25;5034510;28;20053;-68
2022/12/10 06:12:56;;;;;;;57.95;24.67;;;;;;;-0.05;67.42;99621.63;5016632;28;20051;-68
2022/12/10 06:15:22;;;;;;;59.25;25.17;;;;;;;0.17;66.80;99646.22;5034785;28;20482;-68
2022/12/10 06:17:47;;;;;;;60.97;26.38;;;;;;;0.21;66.93;99647.81;5034096;28;20034;-68
2022/12/10 06:20:13;;;;;;;52.92;22.63;;;;;;;0.28;67.27;99649.31;5035252;28;20136;-67
2022/12/10 06:22:38;;;;;;;52.72;22.33;;;;;;;0.28;66.25;99638.78;5033720;28;20117;-66
2022/12/10 06:25:05;;;;;;;45.58;21.77;;;;;;;0.36;66.38;99647.19;5034713;28;20076;-67
2022/12/10 06:27:32;;;;;;;46.65;21.55;;;;;;;0.34;66.16;99637.63;5034284;28;20514;-68
2022/12/10 06:29:57;;;;;;;53.75;21.38;;;;;;;0.35;66.04;99639.34;5035000;28;20069;-66
2022/12/10 06:32:22;;;;;;;52.45;23.08;;;;;;;0.40;65.71;99642.66;5033271;28;20061;-69
2022/12/10 06:34:48;;;;;;;51.90;21.88;;;;;;;0.41;66.27;99647.84;5034221;28;20524;-68
2022/12/10 06:37:13;;;;;;;52.50;22.88;;;;;;;0.42;66.30;99625.88;5033612;28;20041;-66
2022/12/10 06:39:39;;;;;;;43.08;21.77;;;;;;;0.54;66.01;99636.81;5034029;28;20033;-68
2022/12/10 06:42:05;;;;;;;50.40;21.02;;;;;;;0.62;65.96;99632.06;5034512;28;20467;-67
2022/12/10 06:44:31;;;;;;;47.60;22.00;;;;;;;0.64;65.92;99626.75;5034177;28;20080;-68
2022/12/10 06:46:56;;;;;;;46.10;21.30;;;;;;;0.74;65.87;99633.31;5034606;28;20044;-69
2022/12/10 06:49:21;;;;;;;43.90;22.13;;;;;;;0.82;65.32;99633.84;5034819;28;20486;-67
2022/12/10 06:51:47;;;;;;;51.22;21.67;;;;;;;0.88;65.22;99638.00;5032983;28;20033;-68
2022/12/10 06:54:13;;;;;;;55.28;23.75;;;;;;;0.88;64.96;99630.09;5032861;28;20122;-68
2022/12/10 06:56:38;;;;;;;51.65;22.45;;;;;;;0.86;65.03;99639.84;5033388;28;20040;-69
2022/12/10 06:59:06;;;;;;;47.90;23.25;;;;;;;0.90;64.93;99633.50;5033667;28;20068;-68
2022/12/10 07:01:32;;;;;;;51.83;23.52;;;;;;;0.88;65.30;99635.34;5033912;28;20035;-69
2022/12/10 07:03:57;;;;;;;56.92;24.17;;;;;;;0.91;65.30;99632.59;5034089;28;20050;-67
2022/12/10 07:06:25;;;;;;;51.50;23.50;;;;;;;0.98;64.95;99635.81;5033204;28;20065;-66
2022/12/10 07:08:51;;;;;;;54.40;23.33;;;;;;;1.07;65.52;99634.56;5016577;28;20058;-69
2022/12/10 07:11:19;;;;;;;60.78;25.58;;;;;;;1.13;65.02;99636.91;5033555;28;20029;-68
2022/12/10 07:13:44;;;;;;;57.88;26.10;;;;;;;1.17;64.80;99624.47;5033172;28;20091;-68
2022/12/10 07:16:13;;;;;;;56.42;26.15;;;;;;;1.23;65.11;99630.31;5033887;28;20034;-67
2022/12/10 07:18:38;;;;;;;52.72;24.80;;;;;;;1.28;64.28;99627.47;5033851;28;20046;-68
2022/12/10 07:21:14;;;;;;;60.17;26.60;;;;;;;1.38;64.70;99638.44;5034126;28;20037;-69
2022/12/10 07:23:39;;;;;;;64.75;26.45;;;;;;;1.29;64.93;99613.34;5033571;28;20051;-68
2022/12/10 07:26:05;;;;;;;55.50;25.00;;;;;;;1.36;64.40;99630.63;5033486;28;20037;-68
2022/12/10 07:28:30;;;;;;;64.75;27.17;;;;;;;1.22;63.97;99604.00;5033146;28;20060;-68
2022/12/10 07:31:03;;;;;;;67.50;28.48;;;;;;;1.39;64.71;99640.16;5033615;28;20452;-68
2022/12/10 07:33:28;;;;;;;63.13;27.73;;;;;;;1.39;64.85;99645.44;5032509;28;20121;-67
2022/12/10 07:35:54;;;;;;;66.07;28.10;;;;;;;1.36;64.66;99640.31;5032447;28;20128;-68
2022/12/10 07:38:19;;;;;;;67.53;28.77;;;;;;;1.32;64.53;99636.09;5033145;28;20021;-68
2022/12/10 07:40:45;;;;;;;63.92;28.52;;;;;;;1.31;64.55;99629.94;5033003;28;20033;-69
2022/12/10 07:43:10;;;;;;;69.63;28.02;;;;;;;1.14;64.91;99601.72;5033459;28;20037;-69
2022/12/10 07:45:36;;;;;;;72.35;28.73;;;;;;;1.35;64.56;99635.94;5032646;28;20091;-65
2022/12/10 07:48:01;;;;;;;64.95;28.83;;;;;;;1.22;64.71;99625.09;5015002;28;20050;-69
2022/12/10 07:50:27;;;;;;;68.95;29.80;;;;;;;1.24;64.85;99634.66;5015665;28;20146;-68
2022/12/10 07:52:52;;;;;;;66.43;31.08;;;;;;;1.21;64.77;99632.19;5032394;28;20029;-67
2022/12/10 07:55:18;;;;;;;76.55;29.88;;;;;;;1.20;65.01;99626.97;5032361;28;20301;-68
2022/12/10 07:57:43;;;;;;;79.05;30.58;;;;;;;1.24;65.27;99618.84;5032468;28;20074;-68
2022/12/10 08:00:09;;;;;;;71.45;29.65;;;;;;;1.31;65.12;99635.22;5031914;28;20453;-65
2022/12/10 08:02:35;;;;;;;74.97;31.23;;;;;;;1.37;65.47;99632.31;5031784;28;20457;-68
2022/12/10 08:05:00;;;;;;;77.55;31.98;;;;;;;1.26;64.86;99589.75;5033289;28;20030;-69
2022/12/10 08:07:25;;;;;;;78.95;30.58;;;;;;;1.57;64.64;99625.28;5014940;28;20320;-67
2022/12/10 08:09:51;;;;;;;71.45;31.42;;;;;;;1.65;64.38;99619.63;5030850;28;20033;-66
2022/12/10 08:12:16;;;;;;;77.15;33.67;;;;;;;1.71;63.14;99625.47;5031746;28;20037;-66
2022/12/10 08:14:42;;;;;;;81.88;33.25;;;;;;;1.68;63.55;99628.25;5032338;28;20108;-67
2022/12/10 08:17:07;;;;;;;76.38;32.75;;;;;;;1.25;64.32;99585.41;5033081;28;20112;-69
2022/12/10 08:19:33;;;;;;;80.70;32.58;;;;;;;1.20;64.76;99587.41;5031846;28;20021;-70
2022/12/10 08:21:58;;;;;;;75.22;31.98;;;;;;;1.47;65.18;99619.56;5030605;28;20033;-68
2022/12/10 08:24:24;;;;;;;79.63;31.48;;;;;;;1.34;63.92;99592.91;5031548;28;20095;-67
2022/12/10 08:26:49;;;;;;;84.22;33.00;;;;;;;1.29;64.35;99597.50;5030639;28;20080;-69
2022/12/10 08:29:14;;;;;;;96.07;34.15;;;;;;;1.44;64.22;99624.97;5030203;28;20026;-68
2022/12/10 08:31:40;;;;;;;83.72;33.67;;;;;;;1.39;64.70;99616.41;5032130;28;20025;-69
2022/12/10 08:34:12;;;;;;;87.95;33.88;;;;;;;1.47;65.53;99619.56;5031262;28;20072;-68
2022/12/10 08:36:38;;;;;;;87.78;35.38;;;;;;;1.45;64.80;99610.88;5031906;28;20393;-69
2022/12/10 08:39:03;;;;;;;84.70;33.70;;;;;;;1.51;64.60;99612.34;5030324;28;20155;-67
2022/12/10 08:41:29;;;;;;;89.88;34.28;;;;;;;1.54;64.23;99617.47;5031364;28;20104;-68
2022/12/10 08:43:55;;;;;;;87.00;35.20;;;;;;;1.53;64.49;99607.84;5031296;28;20029;-70
2022/12/10 08:46:22;;;;;;;88.75;35.22;;;;;;;1.51;64.43;99610.59;5030663;28;20359;-67
2022/12/10 08:48:49;;;;;;;92.07;35.95;;;;;;;1.36;64.59;99587.53;5030470;28;20118;-67
2022/12/10 08:51:16;;;;;;;84.43;33.42;;;;;;;1.57;64.58;99610.28;5031645;28;20043;-68
2022/12/10 08:53:42;;;;;;;89.80;35.17;;;;;;;1.49;64.37;99604.53;5031135;28;20029;-65
2022/12/10 08:56:08;;;;;;;85.53;35.67;;;;;;;1.47;64.92;99608.16;5031842;28;20026;-68
2022/12/10 08:58:33;;;;;;;86.57;36.13;;;;;;;1.49;65.35;99606.28;5031277;28;20380;-69
2022/12/10 09:01:01;;;;;;;93.72;38.97;;;;;;;1.19;64.14;99536.41;5031354;28;20112;-68
2022/12/10 09:03:27;;;;;;;100.30;41.17;;;;;;;1.51;64.71;99605.31;5032058;28;20113;-67
2022/12/10 09:05:52;;;;;;;96.93;39.35;;;;;;;1.40;64.98;99608.44;5030212;28;20029;-68
2022/12/10 09:08:17;;;;;;;96.10;39.55;;;;;;;1.32;65.37;99597.38;5030561;28;20081;-68
2022/12/10 09:10:43;;;;;;;81.75;33.55;;;;;;;1.38;65.23;99610.28;5030860;28;20108;-68
2022/12/10 09:13:09;;;;;;;97.82;37.95;;;;;;;1.46;64.37;99602.03;5032062;28;20108;-68
2022/12/10 09:15:34;;;;;;;94.57;38.55;;;;;;;1.45;64.05;99610.88;5031043;28;20033;-69
2022/12/10 09:17:59;;;;;;;95.70;35.75;;;;;;;1.39;64.04;99605.88;5031293;28;20097;-67
2022/12/10 09:20:25;;;;;;;111.05;40.20;;;;;;;1.09;65.07;99595.78;5031147;28;20045;-68
2022/12/10 09:22:50;;;;;;;97.22;38.92;;;;;;;1.13;65.31;99606.16;5030594;28;20389;-68
2022/12/10 09:25:16;;;;;;;102.35;40.55;;;;;;;1.02;65.60;99604.91;5030664;28;20100;-67
2022/12/10 09:27:43;;;;;;;101.95;40.58;;;;;;;0.87;65.93;99598.53;5014335;28;20411;-66
2022/12/10 09:30:09;;;;;;;101.63;39.47;;;;;;;0.94;66.45;99605.25;5030419;28;20025;-71
2022/12/10 09:32:35;;;;;;;102.70;40.90;;;;;;;1.08;65.66;99599.34;5030168;28;20048;-67
2022/12/10 09:35:00;;;;;;;104.68;39.67;;;;;;;0.93;66.06;99582.44;5029318;28;20045;-68
2022/12/10 09:37:26;;;;;;;103.95;38.97;;;;;;;0.97;65.66;99571.72;5031379;28;20028;-68
2022/12/10 09:39:51;;;;;;;98.03;39.10;;;;;;;0.95;65.30;99559.50;5031214;28;20040;-68
2022/12/10 09:42:36;;;;;;;103.47;40.00;;;;;;;1.00;66.05;99595.28;5030452;28;20034;-69
2022/12/10 09:45:04;;;;;;;102.25;37.58;;;;;;;1.03;66.59;99589.00;5031541;28;20116;-68
2022/12/10 09:47:37;;;;;;;99.22;37.63;;;;;;;1.12;66.80;99585.97;5031448;28;20053;-68
2022/12/10 09:50:03;;;;;;;108.15;39.53;;;;;;;1.23;66.11;99589.88;5031535;28;20038;-69
2022/12/10 09:52:38;;;;;;;98.63;37.95;;;;;;;1.27;66.25;99580.91;5031822;28;20025;-69
2022/12/10 09:55:13;;;;;;;97.30;37.45;;;;;;;1.28;65.91;99559.75;5014750;28;20030;-68
2022/12/10 09:57:43;;;;;;;106.05;39.33;;;;;;;1.56;64.95;99589.25;5030967;28;20030;-67
2022/12/10 10:00:25;;;;;;;96.43;36.25;;;;;;;1.54;65.62;99585.81;5030642;28;20037;-68
2022/12/10 10:02:51;;;;;;;97.82;36.75;;;;;;;1.20;65.92;99535.50;5030216;28;20426;-67
2022/12/10 10:05:24;;;;;;;97.63;36.40;;;;;;;1.58;65.36;99574.22;5030143;28;20044;-66
2022/12/10 10:07:53;;;;;;;99.43;37.35;;;;;;;1.63;65.65;99581.91;5030831;28;20115;-68
2022/12/10 10:10:21;;;;;;;96.85;36.40;;;;;;;1.63;65.36;99579.25;5031942;28;20036;-68
2022/12/10 10:12:47;;;;;;;93.43;36.47;;;;;;;1.32;65.93;99544.63;5063510;28;20037;-67
2022/12/10 10:15:18;;;;;;;94.47;36.50;;;;;;;1.43;66.33;99549.38;5031056;28;20161;-68
2022/12/10 10:17:46;;;;;;;95.07;37.42;;;;;;;1.61;65.81;99570.56;5030691;28;20041;-69
2022/12/10 10:20:13;;;;;;;96.10;36.47;;;;;;;1.65;65.17;99574.75;5031975;28;20034;-70
2022/12/10 10:22:39;;;;;;;98.22;37.40;;;;;;;1.63;65.86;99576.63;5030096;28;20026;-72
2022/12/10 10:25:13;;;;;;;95.68;35.45;;;;;;;1.57;66.00;99567.22;5013673;28;20076;-72
2022/12/10 10:27:38;;;;;;;93.80;34.88;;;;;;;1.68;65.69;99580.75;5031538;28;20086;-73
2022/12/10 10:30:04;;;;;;;98.55;36.65;;;;;;;1.50;66.25;99569.28;5031834;28;20121;-72
2022/12/10 10:32:37;;;;;;;102.22;36.83;;;;;;;1.51;66.47;99581.56;5030961;28;20504;-72
2022/12/10 10:35:04;;;;;;;105.20;38.03;;;;;;;1.47;66.75;99569.44;5034182;28;20033;-71
2022/12/10 10:37:41;;;;;;;115.03;38.63;;;;;;;1.47;66.71;99565.94;5034515;28;20071;-71
2022/12/10 10:40:22;;;;;;;112.57;37.28;;;;;;;1.55;66.15;99562.00;5035163;28;20085;-73
2022/12/10 10:42:47;;;;;;;101.25;36.85;;;;;;;1.46;66.11;99570.38;5034639;28;20049;-69
2022/12/10 10:45:32;;;;;;;108.07;36.92;;;;;;;1.51;66.43;99555.19;5035065;28;20037;-70
2022/12/10 10:48:14;;;;;;;105.78;36.00;;;;;;;1.46;66.46;99546.63;5037640;28;20053;-72
2022/12/10 10:50:49;;;;;;;108.75;38.13;;;;;;;1.23;66.73;99513.41;5036932;28;20041;-72
2022/12/10 10:53:35;;;;;;;105.22;39.28;;;;;;;1.32;67.04;99507.69;5036750;28;20056;-71
2022/12/10 10:56:16;;;;;;;111.38;39.47;;;;;;;1.56;66.92;99534.69;5034011;28;20349;-57
2022/12/10 10:59:05;;;;;;;108.00;37.70;;;;;;;1.60;66.73;99529.25;5034864;28;20026;-59
2022/12/10 11:01:55;;;;;;;111.30;39.00;;;;;;;1.54;66.11;99511.94;5033940;28;20087;-60
2022/12/10 11:04:35;;;;;;;105.28;38.53;;;;;;;1.53;67.08;99526.94;5032451;28;20033;-58
2022/12/10 11:07:03;;;;;;;106.47;38.20;;;;;;;1.43;67.11;99523.00;5034092;28;20056;-57
2022/12/10 11:09:32;;;;;;;103.53;36.53;;;;;;;1.45;67.38;99518.53;5033893;28;20029;-60
2022/12/10 11:12:06;;;;;;;113.30;37.40;;;;;;;1.57;66.43;99517.94;5033798;28;20041;-59
2022/12/10 11:14:37;;;;;;;114.72;38.58;;;;;;;1.28;66.91;99516.69;5033231;28;20036;-53
2022/12/10 11:17:24;;;;;;;111.93;39.83;;;;;;;1.36;67.03;99511.91;5033413;28;20094;-57
2022/12/10 11:20:13;;;;;;;114.00;38.53;;;;;;;1.22;67.87;99520.47;5033632;28;20037;-57
2022/12/10 11:22:49;;;;;;;109.18;37.63;;;;;;;1.13;67.99;99515.63;5033194;28;20823;-55
2022/12/10 11:25:15;;;;;;;97.38;33.83;;;;;;;1.05;67.89;99505.41;5033632;28;20067;-58
2022/12/10 11:28:02;;;;;;;100.32;34.30;;;;;;;1.11;67.43;99509.56;5033038;28;20045;-54
2022/12/10 11:30:34;;;;;;;104.47;36.08;;;;;;;1.05;68.00;99507.22;5033228;28;20045;-56
2022/12/10 11:33:27;;;;;;;100.85;36.63;;;;;;;0.96;68.86;99501.44;5033676;28;20116;-57
2022/12/10 11:36:11;;;;;;;99.18;34.45;;;;;;;0.99;68.92;99503.94;5033298;28;20030;-57